Vremea acum in Constanța - Romania

Vrei sa afli care e starea vremii acum in Constanta - Romania? Dorim sa iti furnizam starea vremii pentru Constanta - Romania. Starea vremii Constanta - Romania pentru astazi.

Vremea acum in Constanța

Temperatura: 18.1 °C

Este: Senin
Se simte ca: 18.1 °C
Innorat: 0 %
Precipitatii: 0 %
Presiune atmosferica: 1017 hPa
Umiditate: 52%
Vizibilitate: 10 km
Vantul bate din SE cu 16.2 km/h

Evolutia vremii in Constanța pe ore

Ora: 10:00
Senin
Temperatura: 13.7°C
Sansa de precipitatii: 0%
Ora Descriere Temp Se simte Precipitatii Umiditate Vant
00:0010.5°8.8°0%83%S 12.6 KM/H
01:0010.6°0%82%SSW 12.2 KM/H
02:00Senin11°9.6°0%79%SSW 11.5 KM/H
03:00Senin11.1°10°0%76%SSW 9.7 KM/H
04:00Senin10.2°0%79%SSW 9 KM/H
05:00Senin9.9°8.8°0%78%SSW 8.6 KM/H
06:00Senin9.8°0%78%S 7.2 KM/H
07:00Senin10.7°10.1°0%77%S 6.8 KM/H
08:00Senin12.1°11.3°0%73%SSE 8.6 KM/H
09:00Senin13°12.1°0%71%SSE 11.5 KM/H
10:00Senin13.7°12.6°0%70%SSE 14 KM/H
11:00Senin18.1°12.8°0%52%SE 16.2 KM/H
12:00Senin14.2°13°0%72%SE 16.9 KM/H
13:00Senin14.4°13.1°0%73%SE 17.3 KM/H
14:00Senin14.4°13.2°0%74%SE 17.3 KM/H
15:00Senin14.4°13.2°0%74%SE 17.3 KM/H
16:00Senin14.3°13.1°0%75%SE 16.9 KM/H
17:00Senin14.1°12.8°0%76%SE 16.9 KM/H
18:00Senin13.6°12.3°0%78%SE 16.2 KM/H
19:00Senin13.1°11.9°0%80%SSE 14.4 KM/H
20:00Senin12.1°10.6°0%86%SSE 13.3 KM/H
21:00Senin11.4°9.7°0%87%SE 14.8 KM/H
22:00Senin11.3°9.5°0%88%SSE 15.5 KM/H
23:00Senin11.1°9.2°0%88%SSE 16.2 KM/H




tutorials